sensor_id;sensor_type;location;lat;lon;timestamp;P1;durP1;ratioP1;P2;durP2;ratioP2
9117;SDS011;4594;50.994;7.126;2023-04-03T00:01:36;3.70;;;3.40;;
9117;SDS011;4594;50.994;7.126;2023-04-03T00:04:03;3.93;;;3.60;;
9117;SDS011;4594;50.994;7.126;2023-04-03T00:06:31;3.60;;;3.40;;
9117;SDS011;4594;50.994;7.126;2023-04-03T00:08:57;3.80;;;3.60;;
9117;SDS011;4594;50.994;7.126;2023-04-03T00:11:23;3.73;;;3.43;;
9117;SDS011;4594;50.994;7.126;2023-04-03T00:13:50;3.37;;;3.07;;
9117;SDS011;4594;50.994;7.126;2023-04-03T00:16:16;3.97;;;3.67;;
9117;SDS011;4594;50.994;7.126;2023-04-03T00:18:42;4.30;;;3.90;;
9117;SDS011;4594;50.994;7.126;2023-04-03T00:21:08;4.40;;;4.10;;
9117;SDS011;4594;50.994;7.126;2023-04-03T00:23:37;3.37;;;3.20;;
9117;SDS011;4594;50.994;7.126;2023-04-03T00:26:03;4.50;;;4.00;;
9117;SDS011;4594;50.994;7.126;2023-04-03T00:28:29;4.07;;;3.87;;
9117;SDS011;4594;50.994;7.126;2023-04-03T00:30:55;3.43;;;3.27;;
9117;SDS011;4594;50.994;7.126;2023-04-03T00:33:21;3.73;;;3.50;;
9117;SDS011;4594;50.994;7.126;2023-04-03T00:35:47;3.70;;;3.50;;
9117;SDS011;4594;50.994;7.126;2023-04-03T00:38:14;3.97;;;3.73;;
9117;SDS011;4594;50.994;7.126;2023-04-03T00:40:42;3.60;;;3.40;;
9117;SDS011;4594;50.994;7.126;2023-04-03T00:43:13;3.80;;;3.60;;
9117;SDS011;4594;50.994;7.126;2023-04-03T00:45:43;3.90;;;3.60;;
9117;SDS011;4594;50.994;7.126;2023-04-03T00:48:14;3.13;;;3.03;;
9117;SDS011;4594;50.994;7.126;2023-04-03T00:50:45;4.80;;;3.60;;
9117;SDS011;4594;50.994;7.126;2023-04-03T00:53:14;3.60;;;3.40;;
9117;SDS011;4594;50.994;7.126;2023-04-03T00:55:48;3.20;;;3.03;;
9117;SDS011;4594;50.994;7.126;2023-04-03T00:58:17;4.33;;;3.93;;
9117;SDS011;4594;50.994;7.126;2023-04-03T01:00:48;4.10;;;3.70;;
9117;SDS011;4594;50.994;7.126;2023-04-03T01:03:22;3.80;;;3.53;;
9117;SDS011;4594;50.994;7.126;2023-04-03T01:05:49;3.90;;;3.50;;
9117;SDS011;4594;50.994;7.126;2023-04-03T01:08:15;4.33;;;3.60;;
9117;SDS011;4594;50.994;7.126;2023-04-03T01:10:41;4.37;;;3.60;;
9117;SDS011;4594;50.994;7.126;2023-04-03T01:13:21;4.00;;;3.70;;
9117;SDS011;4594;50.994;7.126;2023-04-03T01:15:51;4.23;;;3.83;;
9117;SDS011;4594;50.994;7.126;2023-04-03T01:18:17;3.80;;;3.60;;
9117;SDS011;4594;50.994;7.126;2023-04-03T01:21:07;4.30;;;3.97;;
9117;SDS011;4594;50.994;7.126;2023-04-03T01:24:08;3.63;;;3.43;;
9117;SDS011;4594;50.994;7.126;2023-04-03T01:26:41;3.70;;;3.50;;
9117;SDS011;4594;50.994;7.126;2023-04-03T01:29:07;4.07;;;3.80;;
9117;SDS011;4594;50.994;7.126;2023-04-03T01:31:49;3.77;;;3.57;;
9117;SDS011;4594;50.994;7.126;2023-04-03T01:34:20;3.67;;;3.47;;
9117;SDS011;4594;50.994;7.126;2023-04-03T01:36:47;4.00;;;3.57;;
9117;SDS011;4594;50.994;7.126;2023-04-03T01:39:12;4.27;;;4.07;;
9117;SDS011;4594;50.994;7.126;2023-04-03T01:41:39;4.53;;;4.23;;
9117;SDS011;4594;50.994;7.126;2023-04-03T01:44:05;4.27;;;4.07;;
9117;SDS011;4594;50.994;7.126;2023-04-03T01:46:31;4.50;;;4.07;;
9117;SDS011;4594;50.994;7.126;2023-04-03T01:48:56;4.57;;;4.27;;
9117;SDS011;4594;50.994;7.126;2023-04-03T01:51:22;4.57;;;4.30;;
9117;SDS011;4594;50.994;7.126;2023-04-03T01:53:48;4.43;;;3.83;;
9117;SDS011;4594;50.994;7.126;2023-04-03T01:56:14;4.27;;;3.97;;
9117;SDS011;4594;50.994;7.126;2023-04-03T01:58:40;4.60;;;4.20;;
9117;SDS011;4594;50.994;7.126;2023-04-03T02:01:06;4.40;;;4.20;;
9117;SDS011;4594;50.994;7.126;2023-04-03T02:03:32;4.20;;;4.00;;
9117;SDS011;4594;50.994;7.126;2023-04-03T02:05:58;4.13;;;3.93;;
9117;SDS011;4594;50.994;7.126;2023-04-03T02:08:24;4.10;;;4.00;;
9117;SDS011;4594;50.994;7.126;2023-04-03T02:10:50;4.37;;;4.13;;
9117;SDS011;4594;50.994;7.126;2023-04-03T02:13:17;4.57;;;4.17;;
9117;SDS011;4594;50.994;7.126;2023-04-03T02:15:43;4.50;;;4.10;;
9117;SDS011;4594;50.994;7.126;2023-04-03T02:18:10;4.70;;;4.30;;
9117;SDS011;4594;50.994;7.126;2023-04-03T02:20:36;4.43;;;4.13;;
9117;SDS011;4594;50.994;7.126;2023-04-03T02:23:02;4.37;;;4.07;;
9117;SDS011;4594;50.994;7.126;2023-04-03T02:25:30;4.53;;;4.07;;
9117;SDS011;4594;50.994;7.126;2023-04-03T02:27:57;4.30;;;4.10;;
9117;SDS011;4594;50.994;7.126;2023-04-03T02:30:23;4.90;;;4.60;;
9117;SDS011;4594;50.994;7.126;2023-04-03T02:32:49;4.43;;;4.13;;
9117;SDS011;4594;50.994;7.126;2023-04-03T02:35:14;4.57;;;4.20;;
9117;SDS011;4594;50.994;7.126;2023-04-03T02:37:40;4.27;;;4.03;;
9117;SDS011;4594;50.994;7.126;2023-04-03T02:40:08;5.20;;;4.70;;
9117;SDS011;4594;50.994;7.126;2023-04-03T02:42:34;4.77;;;4.33;;
9117;SDS011;4594;50.994;7.126;2023-04-03T02:45:00;7.67;;;4.57;;
9117;SDS011;4594;50.994;7.126;2023-04-03T02:47:26;4.20;;;4.00;;
9117;SDS011;4594;50.994;7.126;2023-04-03T02:49:52;4.97;;;4.47;;
9117;SDS011;4594;50.994;7.126;2023-04-03T02:52:18;5.77;;;5.27;;
9117;SDS011;4594;50.994;7.126;2023-04-03T02:54:45;5.43;;;4.17;;
9117;SDS011;4594;50.994;7.126;2023-04-03T02:57:10;4.70;;;4.40;;
9117;SDS011;4594;50.994;7.126;2023-04-03T02:59:37;4.87;;;4.47;;
9117;SDS011;4594;50.994;7.126;2023-04-03T03:02:06;4.47;;;4.27;;
9117;SDS011;4594;50.994;7.126;2023-04-03T03:04:33;4.60;;;4.30;;
9117;SDS011;4594;50.994;7.126;2023-04-03T03:07:00;4.27;;;4.03;;
9117;SDS011;4594;50.994;7.126;2023-04-03T03:09:26;4.00;;;3.80;;
9117;SDS011;4594;50.994;7.126;2023-04-03T03:11:52;3.90;;;3.70;;
9117;SDS011;4594;50.994;7.126;2023-04-03T03:14:18;4.97;;;4.57;;
9117;SDS011;4594;50.994;7.126;2023-04-03T03:16:44;4.57;;;4.27;;
9117;SDS011;4594;50.994;7.126;2023-04-03T03:19:09;5.10;;;4.70;;
9117;SDS011;4594;50.994;7.126;2023-04-03T03:21:35;5.80;;;5.17;;
9117;SDS011;4594;50.994;7.126;2023-04-03T03:24:01;5.93;;;5.20;;
9117;SDS011;4594;50.994;7.126;2023-04-03T03:26:27;4.50;;;4.07;;
9117;SDS011;4594;50.994;7.126;2023-04-03T03:28:53;4.27;;;3.97;;
9117;SDS011;4594;50.994;7.126;2023-04-03T03:31:18;5.87;;;4.03;;
9117;SDS011;4594;50.994;7.126;2023-04-03T03:33:44;3.67;;;3.57;;
9117;SDS011;4594;50.994;7.126;2023-04-03T03:36:10;4.07;;;3.60;;
9117;SDS011;4594;50.994;7.126;2023-04-03T03:38:36;3.87;;;3.73;;
9117;SDS011;4594;50.994;7.126;2023-04-03T03:41:02;4.30;;;4.00;;
9117;SDS011;4594;50.994;7.126;2023-04-03T03:43:28;4.10;;;3.80;;
9117;SDS011;4594;50.994;7.126;2023-04-03T03:45:54;4.00;;;3.80;;
9117;SDS011;4594;50.994;7.126;2023-04-03T03:48:20;3.93;;;3.73;;
9117;SDS011;4594;50.994;7.126;2023-04-03T03:50:46;3.50;;;3.30;;
9117;SDS011;4594;50.994;7.126;2023-04-03T03:53:13;3.60;;;3.50;;
9117;SDS011;4594;50.994;7.126;2023-04-03T03:55:40;3.70;;;3.50;;
9117;SDS011;4594;50.994;7.126;2023-04-03T03:58:06;3.90;;;3.70;;
9117;SDS011;4594;50.994;7.126;2023-04-03T04:00:31;4.17;;;3.77;;
9117;SDS011;4594;50.994;7.126;2023-04-03T04:02:57;3.10;;;3.00;;
9117;SDS011;4594;50.994;7.126;2023-04-03T04:05:23;3.50;;;3.37;;
9117;SDS011;4594;50.994;7.126;2023-04-03T04:07:49;3.53;;;3.33;;
9117;SDS011;4594;50.994;7.126;2023-04-03T04:10:14;3.50;;;3.20;;
9117;SDS011;4594;50.994;7.126;2023-04-03T04:12:40;3.43;;;3.23;;
9117;SDS011;4594;50.994;7.126;2023-04-03T04:15:06;5.23;;;3.40;;
9117;SDS011;4594;50.994;7.126;2023-04-03T04:17:32;3.70;;;3.53;;
9117;SDS011;4594;50.994;7.126;2023-04-03T04:20:00;3.27;;;3.07;;
9117;SDS011;4594;50.994;7.126;2023-04-03T04:22:27;5.67;;;3.43;;
9117;SDS011;4594;50.994;7.126;2023-04-03T04:24:53;3.53;;;3.23;;
9117;SDS011;4594;50.994;7.126;2023-04-03T04:27:19;3.70;;;3.40;;
9117;SDS011;4594;50.994;7.126;2023-04-03T04:29:44;3.90;;;3.70;;
9117;SDS011;4594;50.994;7.126;2023-04-03T04:32:10;3.87;;;3.53;;
9117;SDS011;4594;50.994;7.126;2023-04-03T04:34:36;4.37;;;3.63;;
9117;SDS011;4594;50.994;7.126;2023-04-03T04:37:02;3.50;;;3.30;;
9117;SDS011;4594;50.994;7.126;2023-04-03T04:39:28;3.33;;;3.23;;
9117;SDS011;4594;50.994;7.126;2023-04-03T04:41:54;3.40;;;3.10;;
9117;SDS011;4594;50.994;7.126;2023-04-03T04:44:20;2.93;;;2.83;;
9117;SDS011;4594;50.994;7.126;2023-04-03T04:46:45;3.50;;;3.30;;
9117;SDS011;4594;50.994;7.126;2023-04-03T04:49:11;4.43;;;3.03;;
9117;SDS011;4594;50.994;7.126;2023-04-03T04:51:37;3.73;;;3.30;;
9117;SDS011;4594;50.994;7.126;2023-04-03T04:54:02;4.50;;;3.90;;
9117;SDS011;4594;50.994;7.126;2023-04-03T04:56:28;4.23;;;3.33;;
9117;SDS011;4594;50.994;7.126;2023-04-03T04:58:54;5.80;;;3.30;;
9117;SDS011;4594;50.994;7.126;2023-04-03T05:01:19;3.13;;;3.00;;
9117;SDS011;4594;50.994;7.126;2023-04-03T05:03:45;3.53;;;2.90;;
9117;SDS011;4594;50.994;7.126;2023-04-03T05:06:12;3.17;;;2.97;;
9117;SDS011;4594;50.994;7.126;2023-04-03T05:08:38;3.60;;;3.27;;
9117;SDS011;4594;50.994;7.126;2023-04-03T05:11:04;7.33;;;3.47;;
9117;SDS011;4594;50.994;7.126;2023-04-03T05:13:30;3.90;;;3.33;;
9117;SDS011;4594;50.994;7.126;2023-04-03T05:15:56;3.23;;;3.03;;
9117;SDS011;4594;50.994;7.126;2023-04-03T05:18:21;3.93;;;3.43;;
9117;SDS011;4594;50.994;7.126;2023-04-03T05:20:50;3.63;;;3.37;;
9117;SDS011;4594;50.994;7.126;2023-04-03T05:23:16;3.37;;;3.07;;
9117;SDS011;4594;50.994;7.126;2023-04-03T05:25:42;3.50;;;3.20;;
9117;SDS011;4594;50.994;7.126;2023-04-03T05:28:10;3.50;;;3.20;;
9117;SDS011;4594;50.994;7.126;2023-04-03T05:30:36;3.00;;;2.80;;
9117;SDS011;4594;50.994;7.126;2023-04-03T05:33:02;3.73;;;3.17;;
9117;SDS011;4594;50.994;7.126;2023-04-03T05:35:28;3.23;;;2.97;;
9117;SDS011;4594;50.994;7.126;2023-04-03T05:37:54;3.63;;;3.27;;
9117;SDS011;4594;50.994;7.126;2023-04-03T05:40:19;9.37;;;3.60;;
9117;SDS011;4594;50.994;7.126;2023-04-03T05:42:45;3.63;;;3.23;;
9117;SDS011;4594;50.994;7.126;2023-04-03T05:45:11;5.27;;;3.50;;
9117;SDS011;4594;50.994;7.126;2023-04-03T05:47:36;3.23;;;2.83;;
9117;SDS011;4594;50.994;7.126;2023-04-03T05:50:02;2.87;;;2.70;;
9117;SDS011;4594;50.994;7.126;2023-04-03T05:52:30;7.80;;;3.60;;
9117;SDS011;4594;50.994;7.126;2023-04-03T05:55:01;4.20;;;2.87;;
9117;SDS011;4594;50.994;7.126;2023-04-03T05:57:27;3.23;;;3.00;;
9117;SDS011;4594;50.994;7.126;2023-04-03T05:59:53;3.37;;;3.17;;
9117;SDS011;4594;50.994;7.126;2023-04-03T06:02:20;4.13;;;2.97;;
9117;SDS011;4594;50.994;7.126;2023-04-03T06:04:47;5.87;;;3.20;;
9117;SDS011;4594;50.994;7.126;2023-04-03T06:07:17;3.20;;;2.90;;
9117;SDS011;4594;50.994;7.126;2023-04-03T06:09:48;3.03;;;2.93;;
9117;SDS011;4594;50.994;7.126;2023-04-03T06:12:16;3.20;;;3.00;;
9117;SDS011;4594;50.994;7.126;2023-04-03T06:14:42;2.90;;;2.80;;
9117;SDS011;4594;50.994;7.126;2023-04-03T06:17:08;2.77;;;2.67;;
9117;SDS011;4594;50.994;7.126;2023-04-03T06:19:34;2.67;;;2.50;;
9117;SDS011;4594;50.994;7.126;2023-04-03T06:22:00;83.40;;;78.40;;
9117;SDS011;4594;50.994;7.126;2023-04-03T06:24:28;320.97;;;296.10;;
9117;SDS011;4594;50.994;7.126;2023-04-03T06:26:55;334.13;;;308.63;;
9117;SDS011;4594;50.994;7.126;2023-04-03T06:29:21;333.43;;;308.93;;
9117;SDS011;4594;50.994;7.126;2023-04-03T06:31:48;315.37;;;294.07;;
9117;SDS011;4594;50.994;7.126;2023-04-03T06:34:15;256.73;;;240.87;;
9117;SDS011;4594;50.994;7.126;2023-04-03T06:36:41;56.30;;;52.90;;
9117;SDS011;4594;50.994;7.126;2023-04-03T06:39:09;2.63;;;2.50;;
9117;SDS011;4594;50.994;7.126;2023-04-03T06:41:43;2.37;;;2.27;;
9117;SDS011;4594;50.994;7.126;2023-04-03T06:44:09;2.33;;;2.23;;
9117;SDS011;4594;50.994;7.126;2023-04-03T06:46:40;2.37;;;2.17;;
9117;SDS011;4594;50.994;7.126;2023-04-03T06:49:07;2.50;;;2.33;;
9117;SDS011;4594;50.994;7.126;2023-04-03T06:51:33;3.40;;;2.30;;
9117;SDS011;4594;50.994;7.126;2023-04-03T06:54:00;2.40;;;2.30;;
9117;SDS011;4594;50.994;7.126;2023-04-03T06:56:27;3.40;;;2.10;;
9117;SDS011;4594;50.994;7.126;2023-04-03T06:58:53;2.90;;;2.30;;
9117;SDS011;4594;50.994;7.126;2023-04-03T07:01:20;4.77;;;4.13;;
9117;SDS011;4594;50.994;7.126;2023-04-03T07:03:46;3.40;;;2.10;;
9117;SDS011;4594;50.994;7.126;2023-04-03T07:06:14;2.40;;;2.10;;
9117;SDS011;4594;50.994;7.126;2023-04-03T07:08:41;2.83;;;2.30;;
9117;SDS011;4594;50.994;7.126;2023-04-03T07:11:08;2.33;;;2.10;;
9117;SDS011;4594;50.994;7.126;2023-04-03T07:13:35;2.50;;;2.30;;
9117;SDS011;4594;50.994;7.126;2023-04-03T07:16:01;1.90;;;1.80;;
9117;SDS011;4594;50.994;7.126;2023-04-03T07:18:30;3.13;;;2.23;;
9117;SDS011;4594;50.994;7.126;2023-04-03T07:20:56;2.30;;;2.10;;
9117;SDS011;4594;50.994;7.126;2023-04-03T07:23:22;2.83;;;1.93;;
9117;SDS011;4594;50.994;7.126;2023-04-03T07:25:49;2.63;;;1.97;;
9117;SDS011;4594;50.994;7.126;2023-04-03T07:28:17;1.93;;;1.83;;
9117;SDS011;4594;50.994;7.126;2023-04-03T07:30:45;2.40;;;2.20;;
9117;SDS011;4594;50.994;7.126;2023-04-03T07:33:20;1.73;;;1.60;;
9117;SDS011;4594;50.994;7.126;2023-04-03T07:35:47;41.77;;;39.07;;
9117;SDS011;4594;50.994;7.126;2023-04-03T07:38:13;349.03;;;320.80;;
9117;SDS011;4594;50.994;7.126;2023-04-03T07:40:40;371.10;;;337.03;;
9117;SDS011;4594;50.994;7.126;2023-04-03T07:43:12;390.07;;;355.30;;
9117;SDS011;4594;50.994;7.126;2023-04-03T07:45:38;393.80;;;358.20;;
9117;SDS011;4594;50.994;7.126;2023-04-03T07:48:04;403.47;;;368.00;;
9117;SDS011;4594;50.994;7.126;2023-04-03T07:50:30;398.83;;;363.47;;
9117;SDS011;4594;50.994;7.126;2023-04-03T07:52:57;395.17;;;360.77;;
9117;SDS011;4594;50.994;7.126;2023-04-03T07:55:23;389.43;;;355.33;;
9117;SDS011;4594;50.994;7.126;2023-04-03T07:57:50;371.57;;;342.20;;
9117;SDS011;4594;50.994;7.126;2023-04-03T08:00:16;271.73;;;253.27;;
9117;SDS011;4594;50.994;7.126;2023-04-03T08:02:43;44.43;;;41.80;;
9117;SDS011;4594;50.994;7.126;2023-04-03T08:05:09;3.57;;;2.20;;
9117;SDS011;4594;50.994;7.126;2023-04-03T08:07:36;3.00;;;1.57;;
9117;SDS011;4594;50.994;7.126;2023-04-03T08:10:03;2.93;;;1.63;;
9117;SDS011;4594;50.994;7.126;2023-04-03T08:12:29;1.70;;;1.60;;
9117;SDS011;4594;50.994;7.126;2023-04-03T08:14:56;1.83;;;1.53;;
9117;SDS011;4594;50.994;7.126;2023-04-03T08:17:24;1.63;;;1.50;;
9117;SDS011;4594;50.994;7.126;2023-04-03T08:19:50;1.60;;;1.50;;
9117;SDS011;4594;50.994;7.126;2023-04-03T08:22:15;4.70;;;1.70;;
9117;SDS011;4594;50.994;7.126;2023-04-03T08:24:41;3.73;;;1.70;;
9117;SDS011;4594;50.994;7.126;2023-04-03T08:27:07;1.70;;;1.57;;
9117;SDS011;4594;50.994;7.126;2023-04-03T08:29:32;2.40;;;1.63;;
9117;SDS011;4594;50.994;7.126;2023-04-03T08:31:58;1.63;;;1.43;;
9117;SDS011;4594;50.994;7.126;2023-04-03T08:34:24;2.80;;;1.50;;
9117;SDS011;4594;50.994;7.126;2023-04-03T08:36:49;1.60;;;1.20;;
9117;SDS011;4594;50.994;7.126;2023-04-03T08:39:15;1.50;;;1.40;;
9117;SDS011;4594;50.994;7.126;2023-04-03T08:41:42;1.83;;;1.60;;
9117;SDS011;4594;50.994;7.126;2023-04-03T08:46:56;2.57;;;1.30;;
9117;SDS011;4594;50.994;7.126;2023-04-03T08:49:43;2.00;;;1.20;;
9117;SDS011;4594;50.994;7.126;2023-04-03T08:52:19;2.27;;;1.10;;
9117;SDS011;4594;50.994;7.126;2023-04-03T08:55:00;2.40;;;1.50;;
9117;SDS011;4594;50.994;7.126;2023-04-03T08:57:41;2.40;;;1.37;;
9117;SDS011;4594;50.994;7.126;2023-04-03T09:02:43;1.47;;;1.37;;
9117;SDS011;4594;50.994;7.126;2023-04-03T09:05:50;2.43;;;1.30;;
9117;SDS011;4594;50.994;7.126;2023-04-03T09:20:11;1.47;;;1.30;;
9117;SDS011;4594;50.994;7.126;2023-04-03T09:22:46;2.23;;;1.47;;
9117;SDS011;4594;50.994;7.126;2023-04-03T09:25:15;1.43;;;1.30;;
9117;SDS011;4594;50.994;7.126;2023-04-03T09:27:44;1.37;;;1.03;;
9117;SDS011;4594;50.994;7.126;2023-04-03T09:30:17;1.83;;;1.30;;
9117;SDS011;4594;50.994;7.126;2023-04-03T09:32:48;1.30;;;0.97;;
9117;SDS011;4594;50.994;7.126;2023-04-03T09:35:19;3.37;;;1.27;;
9117;SDS011;4594;50.994;7.126;2023-04-03T09:37:53;1.87;;;1.17;;
9117;SDS011;4594;50.994;7.126;2023-04-03T09:42:50;1.67;;;1.57;;
9117;SDS011;4594;50.994;7.126;2023-04-03T09:51:00;1.00;;;0.90;;
9117;SDS011;4594;50.994;7.126;2023-04-03T09:58:43;1.53;;;1.00;;
9117;SDS011;4594;50.994;7.126;2023-04-03T10:04:14;1.00;;;1.00;;
9117;SDS011;4594;50.994;7.126;2023-04-03T10:06:48;1.43;;;1.33;;
9117;SDS011;4594;50.994;7.126;2023-04-03T10:14:40;1.33;;;1.20;;
9117;SDS011;4594;50.994;7.126;2023-04-03T10:23:17;0.83;;;0.80;;
9117;SDS011;4594;50.994;7.126;2023-04-03T10:31:36;1.90;;;1.00;;
9117;SDS011;4594;50.994;7.126;2023-04-03T10:34:19;0.93;;;0.80;;
9117;SDS011;4594;50.994;7.126;2023-04-03T10:37:05;0.90;;;0.90;;
9117;SDS011;4594;50.994;7.126;2023-04-03T10:39:59;1.47;;;1.23;;
9117;SDS011;4594;50.994;7.126;2023-04-03T10:42:39;0.90;;;0.90;;
9117;SDS011;4594;50.994;7.126;2023-04-03T10:46:08;1.73;;;1.40;;
9117;SDS011;4594;50.994;7.126;2023-04-03T10:51:45;4.77;;;1.30;;
9117;SDS011;4594;50.994;7.126;2023-04-03T10:56:56;1.50;;;1.40;;
9117;SDS011;4594;50.994;7.126;2023-04-03T11:02:20;2.00;;;1.67;;
9117;SDS011;4594;50.994;7.126;2023-04-03T11:05:02;2.03;;;1.80;;
9117;SDS011;4594;50.994;7.126;2023-04-03T11:07:42;1.60;;;1.60;;
9117;SDS011;4594;50.994;7.126;2023-04-03T11:10:59;1.70;;;1.60;;
9117;SDS011;4594;50.994;7.126;2023-04-03T11:13:17;1.67;;;1.60;;
9117;SDS011;4594;50.994;7.126;2023-04-03T11:15:56;2.00;;;1.90;;
9117;SDS011;4594;50.994;7.126;2023-04-03T11:21:20;1.70;;;1.60;;
9117;SDS011;4594;50.994;7.126;2023-04-03T11:23:56;1.60;;;1.50;;
9117;SDS011;4594;50.994;7.126;2023-04-03T11:26:25;3.00;;;1.70;;
9117;SDS011;4594;50.994;7.126;2023-04-03T11:29:02;2.07;;;1.80;;
9117;SDS011;4594;50.994;7.126;2023-04-03T11:34:37;1.97;;;1.87;;
9117;SDS011;4594;50.994;7.126;2023-04-03T11:40:08;1.70;;;1.70;;
9117;SDS011;4594;50.994;7.126;2023-04-03T11:45:56;2.10;;;1.80;;
9117;SDS011;4594;50.994;7.126;2023-04-03T11:50:59;1.87;;;1.80;;
9117;SDS011;4594;50.994;7.126;2023-04-03T11:53:46;1.90;;;1.80;;
9117;SDS011;4594;50.994;7.126;2023-04-03T12:29:35;1.90;;;1.80;;
9117;SDS011;4594;50.994;7.126;2023-04-03T12:44:02;2.10;;;2.00;;
9117;SDS011;4594;50.994;7.126;2023-04-03T12:46:49;2.03;;;1.80;;
9117;SDS011;4594;50.994;7.126;2023-04-03T12:49:30;3.17;;;2.00;;
9117;SDS011;4594;50.994;7.126;2023-04-03T12:54:55;2.10;;;2.00;;
9117;SDS011;4594;50.994;7.126;2023-04-03T12:57:25;1.90;;;1.80;;
9117;SDS011;4594;50.994;7.126;2023-04-03T12:59:55;2.67;;;2.47;;
9117;SDS011;4594;50.994;7.126;2023-04-03T13:04:55;2.20;;;2.10;;
9117;SDS011;4594;50.994;7.126;2023-04-03T13:07:33;2.10;;;2.00;;
9117;SDS011;4594;50.994;7.126;2023-04-03T13:12:32;2.50;;;2.30;;
9117;SDS011;4594;50.994;7.126;2023-04-03T13:15:02;2.13;;;2.03;;
9117;SDS011;4594;50.994;7.126;2023-04-03T13:17:41;3.53;;;2.07;;
9117;SDS011;4594;50.994;7.126;2023-04-03T13:20:11;3.50;;;2.00;;
9117;SDS011;4594;50.994;7.126;2023-04-03T13:22:48;2.30;;;2.10;;
9117;SDS011;4594;50.994;7.126;2023-04-03T13:25:25;3.03;;;2.10;;
9117;SDS011;4594;50.994;7.126;2023-04-03T13:27:55;2.50;;;2.30;;
9117;SDS011;4594;50.994;7.126;2023-04-03T13:30:26;1.97;;;1.87;;
9117;SDS011;4594;50.994;7.126;2023-04-03T13:33:00;2.97;;;2.00;;
9117;SDS011;4594;50.994;7.126;2023-04-03T13:35:37;2.20;;;2.10;;
9117;SDS011;4594;50.994;7.126;2023-04-03T13:38:27;2.37;;;2.03;;
9117;SDS011;4594;50.994;7.126;2023-04-03T13:40:59;2.47;;;2.27;;
9117;SDS011;4594;50.994;7.126;2023-04-03T13:43:33;2.50;;;2.40;;
9117;SDS011;4594;50.994;7.126;2023-04-03T13:46:20;2.80;;;1.90;;
9117;SDS011;4594;50.994;7.126;2023-04-03T13:48:52;2.93;;;2.73;;
9117;SDS011;4594;50.994;7.126;2023-04-03T13:51:22;2.00;;;2.00;;
9117;SDS011;4594;50.994;7.126;2023-04-03T13:53:58;2.00;;;2.00;;
9117;SDS011;4594;50.994;7.126;2023-04-03T13:56:34;2.47;;;2.20;;
9117;SDS011;4594;50.994;7.126;2023-04-03T14:01:45;2.20;;;2.07;;
9117;SDS011;4594;50.994;7.126;2023-04-03T14:04:32;2.40;;;2.20;;
9117;SDS011;4594;50.994;7.126;2023-04-03T14:07:10;2.33;;;2.20;;
9117;SDS011;4594;50.994;7.126;2023-04-03T14:09:37;2.40;;;2.30;;
9117;SDS011;4594;50.994;7.126;2023-04-03T14:12:07;2.53;;;2.37;;
9117;SDS011;4594;50.994;7.126;2023-04-03T14:15:02;2.23;;;2.13;;
9117;SDS011;4594;50.994;7.126;2023-04-03T14:17:37;2.10;;;2.00;;
9117;SDS011;4594;50.994;7.126;2023-04-03T14:20:03;2.13;;;2.10;;
9117;SDS011;4594;50.994;7.126;2023-04-03T14:22:31;2.60;;;2.40;;
9117;SDS011;4594;50.994;7.126;2023-04-03T14:24:59;2.13;;;2.03;;
9117;SDS011;4594;50.994;7.126;2023-04-03T14:27:27;2.17;;;2.00;;
9117;SDS011;4594;50.994;7.126;2023-04-03T14:29:59;2.80;;;2.50;;
9117;SDS011;4594;50.994;7.126;2023-04-03T14:32:28;2.50;;;2.40;;
9117;SDS011;4594;50.994;7.126;2023-04-03T14:34:54;2.60;;;2.13;;
9117;SDS011;4594;50.994;7.126;2023-04-03T14:37:22;2.40;;;2.30;;
9117;SDS011;4594;50.994;7.126;2023-04-03T14:39:55;3.73;;;2.37;;
9117;SDS011;4594;50.994;7.126;2023-04-03T14:42:25;2.20;;;2.10;;
9117;SDS011;4594;50.994;7.126;2023-04-03T14:44:59;2.10;;;2.03;;
9117;SDS011;4594;50.994;7.126;2023-04-03T14:47:28;2.97;;;2.20;;
9117;SDS011;4594;50.994;7.126;2023-04-03T14:49:55;2.40;;;2.20;;
9117;SDS011;4594;50.994;7.126;2023-04-03T14:52:24;2.13;;;2.00;;
9117;SDS011;4594;50.994;7.126;2023-04-03T14:54:56;2.40;;;2.30;;
9117;SDS011;4594;50.994;7.126;2023-04-03T14:57:24;2.03;;;1.93;;
9117;SDS011;4594;50.994;7.126;2023-04-03T14:59:51;2.53;;;2.30;;
9117;SDS011;4594;50.994;7.126;2023-04-03T15:04:56;2.53;;;2.30;;
9117;SDS011;4594;50.994;7.126;2023-04-03T15:07:25;2.27;;;2.20;;
9117;SDS011;4594;50.994;7.126;2023-04-03T15:09:54;2.57;;;2.27;;
9117;SDS011;4594;50.994;7.126;2023-04-03T15:12:23;1.90;;;1.80;;
9117;SDS011;4594;50.994;7.126;2023-04-03T15:14:50;2.30;;;2.20;;
9117;SDS011;4594;50.994;7.126;2023-04-03T15:17:17;2.30;;;2.10;;
9117;SDS011;4594;50.994;7.126;2023-04-03T15:19:45;7.30;;;2.30;;
9117;SDS011;4594;50.994;7.126;2023-04-03T15:22:15;2.20;;;2.10;;
9117;SDS011;4594;50.994;7.126;2023-04-03T15:24:44;2.60;;;2.40;;
9117;SDS011;4594;50.994;7.126;2023-04-03T15:27:10;3.13;;;2.40;;
9117;SDS011;4594;50.994;7.126;2023-04-03T15:29:38;2.60;;;2.27;;
9117;SDS011;4594;50.994;7.126;2023-04-03T15:32:06;2.40;;;2.20;;
9117;SDS011;4594;50.994;7.126;2023-04-03T15:34:34;3.93;;;2.37;;
9117;SDS011;4594;50.994;7.126;2023-04-03T15:37:01;2.50;;;2.30;;
9117;SDS011;4594;50.994;7.126;2023-04-03T15:39:26;2.13;;;2.07;;
9117;SDS011;4594;50.994;7.126;2023-04-03T15:41:52;2.40;;;2.30;;
9117;SDS011;4594;50.994;7.126;2023-04-03T15:44:19;2.40;;;2.20;;
9117;SDS011;4594;50.994;7.126;2023-04-03T15:46:46;2.13;;;2.03;;
9117;SDS011;4594;50.994;7.126;2023-04-03T15:49:16;3.03;;;2.33;;
9117;SDS011;4594;50.994;7.126;2023-04-03T15:51:44;2.43;;;2.30;;
9117;SDS011;4594;50.994;7.126;2023-04-03T15:54:10;2.20;;;2.20;;
9117;SDS011;4594;50.994;7.126;2023-04-03T15:56:36;2.40;;;2.30;;
9117;SDS011;4594;50.994;7.126;2023-04-03T15:59:02;2.10;;;2.00;;
9117;SDS011;4594;50.994;7.126;2023-04-03T16:01:28;2.97;;;2.53;;
9117;SDS011;4594;50.994;7.126;2023-04-03T16:03:54;2.53;;;2.33;;
9117;SDS011;4594;50.994;7.126;2023-04-03T16:06:20;2.70;;;2.50;;
9117;SDS011;4594;50.994;7.126;2023-04-03T16:08:46;2.43;;;2.23;;
9117;SDS011;4594;50.994;7.126;2023-04-03T16:11:14;2.63;;;2.43;;
9117;SDS011;4594;50.994;7.126;2023-04-03T16:13:40;2.87;;;2.60;;
9117;SDS011;4594;50.994;7.126;2023-04-03T16:16:07;2.03;;;1.93;;
9117;SDS011;4594;50.994;7.126;2023-04-03T16:18:33;12.63;;;2.50;;
9117;SDS011;4594;50.994;7.126;2023-04-03T16:21:00;2.40;;;2.30;;
9117;SDS011;4594;50.994;7.126;2023-04-03T16:23:26;2.67;;;2.43;;
9117;SDS011;4594;50.994;7.126;2023-04-03T16:25:52;2.90;;;2.70;;
9117;SDS011;4594;50.994;7.126;2023-04-03T16:28:19;3.83;;;2.50;;
9117;SDS011;4594;50.994;7.126;2023-04-03T16:30:45;2.30;;;2.20;;
9117;SDS011;4594;50.994;7.126;2023-04-03T16:33:13;2.87;;;2.67;;
9117;SDS011;4594;50.994;7.126;2023-04-03T16:35:39;2.30;;;2.10;;
9117;SDS011;4594;50.994;7.126;2023-04-03T16:38:07;2.67;;;2.47;;
9117;SDS011;4594;50.994;7.126;2023-04-03T16:40:33;2.43;;;2.23;;
9117;SDS011;4594;50.994;7.126;2023-04-03T16:42:59;2.43;;;2.33;;
9117;SDS011;4594;50.994;7.126;2023-04-03T16:45:28;2.23;;;2.13;;
9117;SDS011;4594;50.994;7.126;2023-04-03T16:47:54;2.60;;;2.40;;
9117;SDS011;4594;50.994;7.126;2023-04-03T16:50:19;2.40;;;2.30;;
9117;SDS011;4594;50.994;7.126;2023-04-03T16:52:45;2.33;;;2.20;;
9117;SDS011;4594;50.994;7.126;2023-04-03T16:55:11;2.80;;;2.10;;
9117;SDS011;4594;50.994;7.126;2023-04-03T16:57:37;3.27;;;2.60;;
9117;SDS011;4594;50.994;7.126;2023-04-03T17:00:03;2.33;;;2.30;;
9117;SDS011;4594;50.994;7.126;2023-04-03T17:02:30;2.60;;;2.40;;
9117;SDS011;4594;50.994;7.126;2023-04-03T17:04:56;2.93;;;2.30;;
9117;SDS011;4594;50.994;7.126;2023-04-03T17:07:23;2.30;;;2.20;;
9117;SDS011;4594;50.994;7.126;2023-04-03T17:09:50;2.60;;;2.50;;
9117;SDS011;4594;50.994;7.126;2023-04-03T17:12:18;3.40;;;2.60;;
9117;SDS011;4594;50.994;7.126;2023-04-03T17:14:45;3.63;;;2.83;;
9117;SDS011;4594;50.994;7.126;2023-04-03T17:17:11;2.97;;;2.10;;
9117;SDS011;4594;50.994;7.126;2023-04-03T17:19:38;6.40;;;2.50;;
9117;SDS011;4594;50.994;7.126;2023-04-03T17:22:07;3.20;;;2.47;;
9117;SDS011;4594;50.994;7.126;2023-04-03T17:24:34;4.83;;;2.60;;
9117;SDS011;4594;50.994;7.126;2023-04-03T17:27:00;3.33;;;2.70;;
9117;SDS011;4594;50.994;7.126;2023-04-03T17:29:27;2.47;;;2.37;;
9117;SDS011;4594;50.994;7.126;2023-04-03T17:31:53;3.07;;;2.20;;
9117;SDS011;4594;50.994;7.126;2023-04-03T17:34:19;2.67;;;2.43;;
9117;SDS011;4594;50.994;7.126;2023-04-03T17:36:45;3.50;;;2.57;;